createdAt,value
2018-02-14T00:00:20.848Z,11.50
2018-02-14T00:02:48.304Z,10.60
2018-02-14T00:05:16.136Z,9.60
2018-02-14T00:07:44.356Z,8.97
2018-02-14T00:10:11.818Z,8.83
2018-02-14T00:12:39.268Z,9.57
2018-02-14T00:15:06.723Z,9.17
2018-02-14T00:17:34.163Z,9.47
2018-02-14T00:20:02.388Z,9.27
2018-02-14T00:22:29.845Z,10.13
2018-02-14T00:24:57.297Z,9.50
2018-02-14T00:27:24.753Z,9.60
2018-02-14T00:29:52.209Z,10.20
2018-02-14T00:32:19.665Z,16.87
2018-02-14T00:34:47.144Z,9.47
2018-02-14T00:37:14.601Z,9.47
2018-02-14T00:39:42.057Z,9.93
2018-02-14T00:42:09.512Z,9.53
2018-02-14T00:44:36.972Z,11.37
2018-02-14T00:47:05.223Z,10.27
2018-02-14T00:49:32.660Z,9.40
2018-02-14T00:52:00.129Z,9.53
2018-02-14T00:54:27.629Z,10.43
2018-02-14T00:56:55.058Z,10.17
2018-02-14T00:59:22.516Z,10.40
2018-02-14T01:01:49.983Z,13.63
2018-02-14T01:04:17.437Z,10.17
2018-02-14T01:06:45.659Z,9.13
2018-02-14T01:09:13.881Z,10.00
2018-02-14T01:11:41.344Z,10.13
2018-02-14T01:14:08.799Z,10.03
2018-02-14T01:16:36.264Z,9.17
2018-02-14T01:19:09.359Z,9.97
2018-02-14T01:21:36.893Z,10.77
2018-02-14T01:24:04.354Z,12.73
2018-02-14T01:26:32.584Z,20.17
2018-02-14T01:29:00.044Z,11.67
2018-02-14T01:31:27.497Z,9.67
2018-02-14T01:33:54.957Z,11.60
2018-02-14T01:36:22.413Z,11.17
2018-02-14T01:38:49.868Z,11.67
2018-02-14T01:41:17.336Z,9.67
2018-02-14T01:43:44.799Z,11.47
2018-02-14T01:46:12.272Z,14.23
2018-02-14T01:48:39.724Z,22.77
2018-02-14T01:51:07.179Z,21.07
2018-02-14T01:53:34.655Z,20.70
2018-02-14T01:56:02.106Z,29.23
2018-02-14T01:58:29.564Z,39.33
2018-02-14T02:00:57.025Z,34.53
2018-02-14T02:03:24.488Z,33.67
2018-02-14T02:05:51.952Z,27.90
2018-02-14T02:10:53.120Z,24.50
2018-02-14T02:13:20.570Z,26.53
2018-02-14T02:15:48.010Z,21.73
2018-02-14T02:18:16.272Z,21.33
2018-02-14T02:20:43.685Z,20.73
2018-02-14T02:23:11.173Z,21.10
2018-02-14T02:25:38.634Z,20.03
2018-02-14T02:28:06.093Z,17.80
2018-02-14T02:30:33.557Z,19.73
2018-02-14T02:33:01.024Z,18.07
2018-02-14T02:35:28.486Z,20.63
2018-02-14T02:37:55.957Z,35.93
2018-02-14T02:40:30.184Z,36.60
2018-02-14T02:42:57.657Z,22.27
2018-02-14T02:45:25.112Z,16.03
2018-02-14T02:47:52.577Z,16.53
2018-02-14T02:50:20.045Z,16.07
2018-02-14T02:52:47.533Z,13.23
2018-02-14T02:55:15.763Z,15.77
2018-02-14T02:57:44.736Z,12.90
2018-02-14T03:00:12.652Z,14.60
2018-02-14T03:02:40.882Z,15.37
2018-02-14T03:05:08.346Z,14.77
2018-02-14T03:07:35.801Z,15.13
2018-02-14T03:10:03.264Z,14.00
2018-02-14T03:12:31.486Z,14.10
2018-02-14T03:14:59.724Z,14.57
2018-02-14T03:17:27.179Z,16.13
2018-02-14T03:19:54.651Z,13.20
2018-02-14T03:22:22.107Z,14.40
2018-02-14T03:24:49.559Z,14.57
2018-02-14T03:27:17.025Z,14.00
2018-02-14T03:29:44.503Z,13.47
2018-02-14T03:32:11.961Z,12.80
2018-02-14T03:34:40.189Z,12.17
2018-02-14T03:37:08.408Z,13.57
2018-02-14T03:39:35.869Z,12.63
2018-02-14T03:42:03.331Z,13.00
2018-02-14T03:44:30.804Z,10.47
2018-02-14T03:46:58.262Z,11.07
2018-02-14T03:49:25.733Z,11.77
2018-02-14T03:51:53.191Z,11.60
2018-02-14T03:54:20.660Z,11.30
2018-02-14T03:56:48.121Z,13.77
2018-02-14T03:59:15.602Z,12.13
2018-02-14T04:01:43.053Z,12.33
2018-02-14T04:04:10.512Z,11.57
2018-02-14T04:06:37.972Z,11.90
2018-02-14T04:09:05.423Z,12.90
2018-02-14T04:11:32.893Z,12.97
2018-02-14T04:14:00.352Z,13.30
2018-02-14T04:16:27.820Z,16.37
2018-02-14T04:18:55.284Z,14.87
2018-02-14T04:21:22.748Z,14.07
2018-02-14T04:23:50.222Z,17.53
2018-02-14T04:26:17.697Z,15.90
2018-02-14T04:28:45.146Z,15.07
2018-02-14T04:31:13.372Z,17.33
2018-02-14T04:33:40.838Z,16.27
2018-02-14T04:36:08.317Z,13.63
2018-02-14T04:38:35.776Z,13.27
2018-02-14T04:41:03.236Z,12.50
2018-02-14T04:43:30.689Z,11.97
2018-02-14T04:45:58.148Z,12.17
2018-02-14T04:48:25.613Z,11.53
2018-02-14T04:50:53.077Z,12.13
2018-02-14T04:53:20.524Z,13.57
2018-02-14T04:55:48.770Z,12.10
2018-02-14T04:58:16.234Z,13.03
2018-02-14T05:00:44.457Z,13.07
2018-02-14T05:03:11.936Z,13.30
2018-02-14T05:05:40.138Z,14.87
2018-02-14T05:08:07.607Z,13.23
2018-02-14T05:10:35.076Z,15.23
2018-02-14T05:13:02.552Z,14.97
2018-02-14T05:15:30.000Z,17.10
2018-02-14T05:17:57.478Z,13.00
2018-02-14T05:20:24.937Z,12.80
2018-02-14T05:22:52.397Z,14.50
2018-02-14T05:25:19.853Z,12.13
2018-02-14T05:27:47.312Z,15.70
2018-02-14T05:30:14.776Z,15.73
2018-02-14T05:32:42.246Z,16.57
2018-02-14T05:35:09.696Z,19.40
2018-02-14T05:37:37.182Z,20.23
2018-02-14T05:40:04.628Z,21.23
2018-02-14T05:42:32.100Z,21.57
2018-02-14T05:44:59.548Z,16.87
2018-02-14T05:47:27.020Z,17.90
2018-02-14T05:49:54.474Z,21.67
2018-02-14T05:52:21.950Z,20.00
2018-02-14T05:54:49.405Z,18.77
2018-02-14T05:57:16.870Z,19.20
2018-02-14T05:59:44.333Z,21.63
2018-02-14T06:02:11.798Z,17.67
2018-02-14T06:04:39.261Z,18.80
2018-02-14T06:07:06.713Z,19.70
2018-02-14T06:09:34.190Z,18.27
2018-02-14T06:12:01.672Z,19.47
2018-02-14T06:14:29.890Z,21.00
2018-02-14T06:16:57.352Z,16.90
2018-02-14T06:19:24.831Z,21.83
2018-02-14T06:21:52.292Z,19.47
2018-02-14T06:24:19.754Z,21.73
2018-02-14T06:26:47.216Z,20.13
2018-02-14T06:29:15.441Z,19.60
2018-02-14T06:31:43.668Z,20.73
2018-02-14T06:34:11.126Z,23.53
2018-02-14T06:36:38.584Z,23.13
2018-02-14T06:39:06.069Z,20.03
2018-02-14T06:41:33.529Z,19.60
2018-02-14T06:44:01.014Z,19.80
2018-02-14T06:46:28.489Z,21.93
2018-02-14T06:48:56.707Z,23.50
2018-02-14T06:51:24.170Z,21.27
2018-02-14T06:53:51.637Z,23.13
2018-02-14T06:56:19.107Z,23.43
2018-02-14T06:58:46.584Z,24.23
2018-02-14T07:01:14.032Z,20.90
2018-02-14T07:03:41.497Z,24.77
2018-02-14T07:06:08.965Z,21.90
2018-02-14T07:08:36.425Z,21.73
2018-02-14T07:11:03.892Z,25.20
2018-02-14T07:13:31.349Z,20.80
2018-02-14T07:15:58.805Z,24.50
2018-02-14T07:18:26.282Z,25.10
2018-02-14T07:20:53.747Z,27.33
2018-02-14T07:23:26.914Z,26.73
2018-02-14T07:25:54.376Z,24.13
2018-02-14T07:28:21.835Z,24.13
2018-02-14T07:30:49.297Z,17.90
2018-02-14T07:33:16.773Z,17.53
2018-02-14T07:35:44.244Z,17.27
2018-02-14T07:38:11.705Z,17.80
2018-02-14T07:40:39.169Z,16.00
2018-02-14T07:43:06.629Z,16.03
2018-02-14T07:45:34.094Z,16.20
2018-02-14T07:48:01.545Z,15.93
2018-02-14T07:50:29.007Z,13.80
2018-02-14T07:52:56.469Z,15.00
2018-02-14T07:55:23.941Z,16.07
2018-02-14T07:57:51.405Z,17.40
2018-02-14T08:00:18.887Z,16.00
2018-02-14T08:02:47.118Z,17.20
2018-02-14T08:05:14.585Z,16.23
2018-02-14T08:07:42.073Z,15.23
2018-02-14T08:10:09.535Z,14.27
2018-02-14T08:12:37.000Z,14.93
2018-02-14T08:15:04.474Z,13.77
2018-02-14T08:17:31.935Z,14.23
2018-02-14T08:19:59.388Z,13.13
2018-02-14T08:22:26.856Z,14.90
2018-02-14T08:24:54.322Z,14.40
2018-02-14T08:27:22.545Z,11.50
2018-02-14T08:29:50.778Z,13.23
2018-02-14T08:32:18.259Z,13.50
2018-02-14T08:34:45.708Z,13.87
2018-02-14T08:37:13.171Z,15.00
2018-02-14T08:39:40.624Z,18.57
2018-02-14T08:42:08.096Z,12.87
2018-02-14T08:44:35.565Z,12.80
2018-02-14T08:47:03.026Z,12.90
2018-02-14T08:49:30.487Z,11.23
2018-02-14T08:51:57.956Z,11.83
2018-02-14T08:54:25.408Z,12.03
2018-02-14T08:56:52.881Z,11.50
2018-02-14T08:59:20.344Z,13.33
2018-02-14T09:01:47.805Z,12.30
2018-02-14T09:04:15.262Z,11.20
2018-02-14T09:06:42.779Z,14.90
2018-02-14T09:09:10.225Z,12.80
2018-02-14T09:11:38.456Z,11.57
2018-02-14T09:14:05.908Z,11.67
2018-02-14T09:16:33.374Z,13.00
2018-02-14T09:19:01.606Z,13.13
2018-02-14T09:21:29.833Z,11.93
2018-02-14T09:23:57.292Z,12.67
2018-02-14T09:26:24.836Z,12.20
2018-02-14T09:28:52.399Z,11.50
2018-02-14T09:31:19.909Z,13.10
2018-02-14T09:33:47.297Z,12.13
2018-02-14T09:36:15.538Z,12.47
2018-02-14T09:38:42.993Z,12.00
2018-02-14T09:41:10.456Z,11.27
2018-02-14T09:43:37.912Z,12.37
2018-02-14T09:46:05.388Z,12.40
2018-02-14T09:48:32.847Z,11.20
2018-02-14T09:51:00.316Z,11.47
2018-02-14T09:53:27.781Z,11.90
2018-02-14T09:55:55.252Z,10.97
2018-02-14T09:58:22.708Z,13.87
2018-02-14T10:00:50.157Z,10.73
2018-02-14T10:03:17.616Z,10.17
2018-02-14T10:05:45.076Z,10.97
2018-02-14T10:08:12.528Z,11.20
2018-02-14T10:10:39.980Z,10.57
2018-02-14T10:13:07.444Z,11.23
2018-02-14T10:15:34.903Z,13.73
2018-02-14T10:18:02.407Z,10.27
2018-02-14T10:20:29.811Z,9.87
2018-02-14T10:22:58.033Z,10.30
2018-02-14T10:25:25.484Z,8.57
2018-02-14T10:27:52.952Z,9.10
2018-02-14T10:30:20.401Z,10.20
2018-02-14T10:32:47.860Z,9.87
2018-02-14T10:35:15.317Z,9.87
2018-02-14T10:37:42.776Z,10.27
2018-02-14T10:40:10.226Z,10.23
2018-02-14T10:42:38.446Z,10.10
2018-02-14T10:45:05.885Z,9.40
2018-02-14T10:47:33.348Z,10.87
2018-02-14T10:50:00.811Z,10.70
2018-02-14T10:52:28.249Z,9.80
2018-02-14T10:54:56.462Z,9.87
2018-02-14T10:57:23.924Z,12.17
2018-02-14T10:59:51.374Z,12.23
2018-02-14T11:02:18.852Z,10.93
2018-02-14T11:04:52.028Z,11.43
2018-02-14T11:07:19.486Z,9.83
2018-02-14T11:09:46.935Z,11.70
2018-02-14T11:12:15.165Z,14.73
2018-02-14T11:14:42.633Z,11.40
2018-02-14T11:17:10.092Z,11.67
2018-02-14T11:19:37.575Z,10.90
2018-02-14T11:22:05.016Z,9.27
2018-02-14T11:24:32.468Z,9.73
2018-02-14T11:26:59.920Z,11.23
2018-02-14T11:29:27.372Z,8.90
2018-02-14T11:34:29.580Z,10.80
2018-02-14T11:36:57.024Z,9.03
2018-02-14T11:39:24.511Z,9.10
2018-02-14T11:41:51.957Z,33.37
2018-02-14T11:44:19.421Z,15.37
2018-02-14T11:46:46.877Z,12.53
2018-02-14T11:49:14.337Z,12.23
2018-02-14T11:51:41.816Z,11.57
2018-02-14T11:54:09.279Z,21.53
2018-02-14T11:56:36.728Z,12.20
2018-02-14T11:59:04.188Z,21.50
2018-02-14T12:01:31.645Z,14.07
2018-02-14T12:03:59.110Z,12.83
2018-02-14T12:06:26.569Z,9.40
2018-02-14T12:08:54.031Z,11.23
2018-02-14T12:11:21.584Z,13.23
2018-02-14T12:13:49.040Z,12.80
2018-02-14T12:16:17.262Z,9.67
2018-02-14T12:18:44.725Z,10.43
2018-02-14T12:21:12.165Z,9.63
2018-02-14T12:23:39.630Z,7.83
2018-02-14T12:26:07.076Z,8.27
2018-02-14T12:28:34.527Z,7.80
2018-02-14T12:31:02.760Z,8.57
2018-02-14T12:33:30.212Z,7.90
2018-02-14T12:35:57.675Z,7.13
2018-02-14T12:38:25.112Z,7.80
2018-02-14T12:40:52.572Z,8.83
2018-02-14T12:43:20.015Z,9.00
2018-02-14T12:45:48.240Z,7.87
2018-02-14T12:48:15.690Z,9.57
2018-02-14T12:50:43.170Z,9.40
2018-02-14T12:53:10.617Z,9.43
2018-02-14T12:55:38.078Z,9.33
2018-02-14T12:58:05.531Z,8.27
2018-02-14T13:00:32.992Z,8.17
2018-02-14T13:03:00.433Z,8.00
2018-02-14T13:05:28.661Z,8.63
2018-02-14T13:07:56.109Z,8.43
2018-02-14T13:10:23.569Z,8.40
2018-02-14T13:12:51.026Z,9.07
2018-02-14T13:15:18.492Z,9.13
2018-02-14T13:17:45.947Z,9.60
2018-02-14T13:20:13.407Z,9.70
2018-02-14T13:22:40.847Z,9.90
2018-02-14T13:25:09.073Z,10.23
2018-02-14T13:27:36.522Z,8.70
2018-02-14T13:30:03.972Z,9.47
2018-02-14T13:32:31.426Z,11.57
2018-02-14T13:34:58.883Z,10.33
2018-02-14T13:37:27.113Z,10.00
2018-02-14T13:39:54.584Z,9.50
2018-02-14T13:42:22.033Z,9.73
2018-02-14T13:44:49.493Z,9.17
2018-02-14T13:47:16.956Z,9.87
2018-02-14T13:49:45.176Z,9.70
2018-02-14T13:52:13.395Z,9.47
2018-02-14T13:54:40.841Z,9.63
2018-02-14T13:57:08.309Z,9.97
2018-02-14T13:59:35.771Z,10.90
2018-02-14T14:02:03.228Z,10.17
2018-02-14T14:04:30.699Z,9.40
2018-02-14T14:06:58.132Z,9.43
2018-02-14T14:09:26.344Z,9.93
2018-02-14T14:11:53.804Z,9.20
2018-02-14T14:14:21.249Z,9.37
2018-02-14T14:16:48.699Z,9.07
2018-02-14T14:19:16.913Z,9.50
2018-02-14T14:21:44.370Z,8.87
2018-02-14T14:24:11.818Z,8.87
2018-02-14T14:26:39.282Z,9.27
2018-02-14T14:29:06.727Z,9.60
2018-02-14T14:31:34.944Z,9.40
2018-02-14T14:34:02.420Z,11.57
2018-02-14T14:36:29.873Z,10.67
2018-02-14T14:38:57.325Z,11.67
2018-02-14T14:41:24.788Z,10.20
2018-02-14T14:43:52.241Z,10.50
2018-02-14T14:46:19.695Z,10.33
2018-02-14T14:48:47.914Z,14.43
2018-02-14T14:51:15.389Z,12.17
2018-02-14T14:53:42.838Z,10.13
2018-02-14T14:56:10.284Z,9.10
2018-02-14T14:58:37.788Z,9.17
2018-02-14T15:01:05.202Z,16.30
2018-02-14T15:03:32.661Z,10.03
2018-02-14T15:06:00.109Z,12.17
2018-02-14T15:08:27.559Z,10.03
2018-02-14T15:10:55.781Z,9.53
2018-02-14T15:13:23.253Z,19.97
2018-02-14T15:15:50.708Z,11.87
2018-02-14T15:18:18.170Z,11.93
2018-02-14T15:20:45.624Z,10.57
2018-02-14T15:23:13.900Z,10.77
2018-02-14T15:25:41.459Z,11.53
2018-02-14T15:28:08.924Z,11.60
2018-02-14T15:30:36.386Z,11.23
2018-02-14T15:33:03.850Z,10.67
2018-02-14T15:35:31.296Z,10.87
2018-02-14T15:37:58.760Z,9.57
2018-02-14T15:40:26.220Z,10.53
2018-02-14T15:42:54.441Z,9.27
2018-02-14T15:45:21.894Z,9.53
2018-02-14T15:47:49.394Z,8.87
2018-02-14T15:50:16.848Z,9.67
2018-02-14T15:52:45.069Z,9.07
2018-02-14T15:55:12.518Z,9.43
2018-02-14T15:57:40.754Z,9.30
2018-02-14T16:00:08.200Z,9.27
2018-02-14T16:02:35.696Z,9.43
2018-02-14T16:05:03.149Z,9.93
2018-02-14T16:07:30.600Z,10.23
2018-02-14T16:09:58.056Z,9.17
2018-02-14T16:12:25.521Z,11.70
2018-02-14T16:14:52.989Z,10.27
2018-02-14T16:17:20.443Z,10.47
2018-02-14T16:19:47.905Z,10.87
2018-02-14T16:22:15.360Z,10.77
2018-02-14T16:24:42.827Z,10.97
2018-02-14T16:27:10.302Z,10.97
2018-02-14T16:29:37.770Z,9.93
2018-02-14T16:32:05.221Z,9.80
2018-02-14T16:34:32.680Z,11.27
2018-02-14T16:37:00.914Z,12.17
2018-02-14T16:39:29.141Z,9.13
2018-02-14T16:41:56.614Z,12.07
2018-02-14T16:44:24.080Z,10.23
2018-02-14T16:46:51.573Z,10.60
2018-02-14T16:49:19.012Z,15.70
2018-02-14T16:51:46.469Z,23.43
2018-02-14T16:54:13.939Z,39.70
2018-02-14T16:56:41.395Z,30.40
2018-02-14T16:59:08.868Z,29.17
2018-02-14T17:01:36.324Z,30.50
2018-02-14T17:04:03.793Z,27.47
2018-02-14T17:06:31.253Z,24.30
2018-02-14T17:08:58.709Z,21.23
2018-02-14T17:11:26.172Z,17.77
2018-02-14T17:13:53.636Z,16.80
2018-02-14T17:16:21.094Z,15.60
2018-02-14T17:18:48.565Z,15.30
2018-02-14T17:21:16.028Z,15.93
2018-02-14T17:23:43.486Z,15.37
2018-02-14T17:26:10.953Z,25.10
2018-02-14T17:28:38.391Z,23.40
2018-02-14T17:31:05.860Z,20.17
2018-02-14T17:33:33.320Z,20.77
2018-02-14T17:36:00.781Z,20.83
2018-02-14T17:38:28.238Z,20.17
2018-02-14T17:40:55.704Z,23.10
2018-02-14T17:43:23.169Z,20.27
2018-02-14T17:45:50.641Z,18.53
2018-02-14T17:48:18.096Z,17.97
2018-02-14T17:50:45.556Z,17.87
2018-02-14T17:53:13.033Z,19.93
2018-02-14T17:55:40.505Z,18.90
2018-02-14T17:58:07.969Z,17.37
2018-02-14T18:00:35.424Z,20.07
2018-02-14T18:03:03.661Z,20.57
2018-02-14T18:05:31.121Z,17.37
2018-02-14T18:07:58.590Z,13.60
2018-02-14T18:10:26.068Z,13.07
2018-02-14T18:12:53.519Z,13.13
2018-02-14T18:15:20.991Z,15.63
2018-02-14T18:17:48.457Z,15.07
2018-02-14T18:20:15.922Z,17.27
2018-02-14T18:22:43.379Z,19.40
2018-02-14T18:25:10.839Z,25.60
2018-02-14T18:27:38.304Z,28.87
2018-02-14T18:30:05.770Z,28.13
2018-02-14T18:32:33.232Z,28.73
2018-02-14T18:35:00.680Z,26.80
2018-02-14T18:37:28.136Z,23.87
2018-02-14T18:39:55.593Z,25.70
2018-02-14T18:42:23.056Z,23.87
2018-02-14T18:44:51.314Z,20.13
2018-02-14T18:47:18.806Z,21.10
2018-02-14T18:49:46.254Z,22.73
2018-02-14T18:52:13.735Z,22.03
2018-02-14T18:54:41.189Z,22.73
2018-02-14T18:57:08.654Z,21.30
2018-02-14T18:59:36.118Z,21.73
2018-02-14T19:02:03.586Z,20.93
2018-02-14T19:04:31.049Z,24.17
2018-02-14T19:06:58.508Z,40.73
2018-02-14T19:09:26.064Z,30.63
2018-02-14T19:11:53.528Z,26.30
2018-02-14T19:14:20.988Z,24.63
2018-02-14T19:16:48.449Z,22.03
2018-02-14T19:19:15.912Z,23.47
2018-02-14T19:21:43.364Z,26.40
2018-02-14T19:24:10.825Z,23.73
2018-02-14T19:26:38.277Z,24.47
2018-02-14T19:29:06.504Z,26.87
2018-02-14T19:31:33.953Z,25.53
2018-02-14T19:34:01.417Z,25.90
2018-02-14T19:36:28.871Z,24.47
2018-02-14T19:38:56.371Z,27.47
2018-02-14T19:41:23.823Z,24.63
2018-02-14T19:43:52.048Z,22.57
2018-02-14T19:46:20.260Z,21.20
2018-02-14T19:48:47.724Z,19.07
2018-02-14T19:51:15.176Z,19.37
2018-02-14T19:53:42.637Z,22.40
2018-02-14T19:56:10.096Z,25.10
2018-02-14T19:58:37.555Z,24.27
2018-02-14T20:01:05.009Z,19.97
2018-02-14T20:03:33.228Z,21.33
2018-02-14T20:06:00.677Z,24.37
2018-02-14T20:08:28.136Z,21.43
2018-02-14T20:10:55.592Z,22.63
2018-02-14T20:13:23.050Z,21.03
2018-02-14T20:15:50.490Z,22.57
2018-02-14T20:18:18.716Z,23.10
2018-02-14T20:20:46.168Z,22.17
2018-02-14T20:23:13.620Z,23.50
2018-02-14T20:25:41.072Z,21.50
2018-02-14T20:28:08.520Z,24.10
2018-02-14T20:30:36.745Z,22.37
2018-02-14T20:33:04.188Z,22.43
2018-02-14T20:35:31.648Z,28.13
2018-02-14T20:37:59.096Z,28.57
2018-02-14T20:40:26.546Z,26.30
2018-02-14T20:42:54.768Z,29.50
2018-02-14T20:45:22.229Z,23.57
2018-02-14T20:47:49.688Z,24.23
2018-02-14T20:50:17.152Z,23.23
2018-02-14T20:52:44.600Z,23.63
2018-02-14T20:55:12.066Z,22.37
2018-02-14T20:57:39.521Z,22.97
2018-02-14T21:00:06.990Z,23.40
2018-02-14T21:02:34.437Z,24.77
2018-02-14T21:05:01.897Z,22.60
2018-02-14T21:07:29.341Z,22.40
2018-02-14T21:09:57.569Z,20.77
2018-02-14T21:12:25.013Z,24.93
2018-02-14T21:14:52.477Z,21.43
2018-02-14T21:17:19.935Z,23.57
2018-02-14T21:19:47.405Z,20.53
2018-02-14T21:22:14.858Z,22.33
2018-02-14T21:24:42.313Z,20.37
2018-02-14T21:27:09.769Z,21.03
2018-02-14T21:29:37.981Z,23.33
2018-02-14T21:32:05.434Z,20.87
2018-02-14T21:34:32.914Z,22.70
2018-02-14T21:37:00.352Z,22.67
2018-02-14T21:39:27.810Z,22.47
2018-02-14T21:41:55.264Z,22.70
2018-02-14T21:44:23.481Z,26.93
2018-02-14T21:46:50.950Z,28.57
2018-02-14T21:49:19.159Z,24.93
2018-02-14T21:51:46.624Z,30.40
2018-02-14T21:54:14.095Z,26.67
2018-02-14T21:56:42.328Z,26.60
2018-02-14T21:59:09.768Z,23.13
2018-02-14T22:01:37.233Z,23.13
2018-02-14T22:04:04.692Z,23.57
2018-02-14T22:06:32.154Z,21.43
2018-02-14T22:08:59.633Z,20.77
2018-02-14T22:11:27.083Z,25.17
2018-02-14T22:13:54.540Z,23.30
2018-02-14T22:16:22.021Z,22.20
2018-02-14T22:18:49.480Z,21.37
2018-02-14T22:21:16.946Z,23.10
2018-02-14T22:23:44.392Z,24.37
2018-02-14T22:26:11.865Z,24.33
2018-02-14T22:28:39.316Z,22.73
2018-02-14T22:31:06.781Z,21.40
2018-02-14T22:33:34.250Z,22.20
2018-02-14T22:36:01.704Z,22.43
2018-02-14T22:38:29.153Z,23.13
2018-02-14T22:40:56.629Z,23.73
2018-02-14T22:43:24.082Z,26.60
2018-02-14T22:45:51.537Z,23.93
2018-02-14T22:48:19.004Z,22.73
2018-02-14T22:50:46.460Z,21.13
2018-02-14T22:53:14.685Z,21.70
2018-02-14T22:55:42.146Z,21.93
2018-02-14T22:58:09.606Z,22.60
2018-02-14T23:00:37.061Z,21.97
2018-02-14T23:03:04.528Z,20.83
2018-02-14T23:05:31.980Z,22.20
2018-02-14T23:08:00.199Z,21.03
2018-02-14T23:10:27.653Z,21.70
2018-02-14T23:12:55.149Z,20.30
2018-02-14T23:15:22.598Z,19.60
2018-02-14T23:17:50.065Z,18.83
2018-02-14T23:20:17.520Z,21.00
2018-02-14T23:22:44.981Z,18.97
2018-02-14T23:25:13.312Z,19.00
2018-02-14T23:27:41.537Z,20.87
2018-02-14T23:30:12.830Z,17.73
2018-02-14T23:32:41.065Z,16.80
2018-02-14T23:35:08.508Z,18.60
2018-02-14T23:37:35.968Z,17.20
2018-02-14T23:40:03.439Z,18.37
2018-02-14T23:42:30.876Z,18.93
2018-02-14T23:44:58.327Z,18.93
2018-02-14T23:47:26.565Z,17.97
2018-02-14T23:49:54.022Z,18.77
2018-02-14T23:52:21.486Z,19.87
2018-02-14T23:54:48.949Z,20.03
2018-02-14T23:57:16.396Z,18.97
2018-02-14T23:59:43.852Z,20.87
